createdAt,value
2023-01-21T00:01:09.965Z,22.10
2023-01-21T00:03:38.512Z,17.70
2023-01-21T00:06:07.053Z,15.27
2023-01-21T00:08:34.972Z,16.52
2023-01-21T00:11:06.506Z,14.50
2023-01-21T00:13:36.707Z,15.55
2023-01-21T00:16:05.300Z,13.70
2023-01-21T00:18:33.537Z,13.68
2023-01-21T00:21:01.700Z,14.38
2023-01-21T00:23:29.519Z,18.10
2023-01-21T00:26:00.647Z,15.70
2023-01-21T00:28:32.423Z,15.63
2023-01-21T00:31:03.242Z,18.83
2023-01-21T00:33:32.554Z,15.38
2023-01-21T00:36:01.442Z,14.27
2023-01-21T00:38:29.264Z,15.43
2023-01-21T00:41:01.313Z,14.18
2023-01-21T00:43:29.113Z,13.15
2023-01-21T00:45:56.996Z,14.93
2023-01-21T00:48:26.923Z,15.18
2023-01-21T00:50:56.097Z,10.40
2023-01-21T00:53:24.186Z,12.52
2023-01-21T00:55:51.890Z,15.75
2023-01-21T00:58:19.863Z,16.00
2023-01-21T01:00:47.551Z,15.05
2023-01-21T01:03:15.324Z,13.77
2023-01-21T01:05:44.504Z,14.70
2023-01-21T01:08:12.193Z,15.25
2023-01-21T01:10:40.121Z,13.07
2023-01-21T01:13:07.833Z,15.00
2023-01-21T01:15:35.601Z,12.98
2023-01-21T01:18:03.442Z,14.05
2023-01-21T01:20:31.225Z,12.95
2023-01-21T01:23:00.288Z,15.10
2023-01-21T01:25:27.991Z,15.48
2023-01-21T01:27:55.723Z,13.63
2023-01-21T01:30:23.488Z,11.90
2023-01-21T01:32:51.256Z,13.45
2023-01-21T01:35:19.059Z,14.10
2023-01-21T01:37:46.745Z,13.98
2023-01-21T01:40:16.328Z,14.02
2023-01-21T01:42:44.284Z,13.65
2023-01-21T01:45:19.076Z,12.50
2023-01-21T01:47:50.110Z,11.50
2023-01-21T01:50:21.290Z,12.07
2023-01-21T01:52:49.138Z,12.02
2023-01-21T01:55:18.425Z,13.05
2023-01-21T01:57:52.451Z,11.93
2023-01-21T02:00:21.611Z,11.23
2023-01-21T02:03:03.415Z,9.32
2023-01-21T02:05:32.386Z,10.10
2023-01-21T02:08:00.791Z,11.93
2023-01-21T02:10:31.721Z,10.02
2023-01-21T02:12:59.634Z,11.20
2023-01-21T02:15:34.689Z,11.00
2023-01-21T02:18:13.061Z,10.75
2023-01-21T02:21:10.493Z,10.00
2023-01-21T02:24:00.523Z,8.75
2023-01-21T02:27:03.982Z,11.60
2023-01-21T02:29:52.686Z,12.70
2023-01-21T02:32:45.499Z,10.35
2023-01-21T02:35:19.689Z,11.23
2023-01-21T02:37:53.545Z,10.80
2023-01-21T02:40:30.395Z,10.55
2023-01-21T02:43:04.789Z,10.30
2023-01-21T02:45:39.494Z,9.77
2023-01-21T02:48:11.736Z,9.20
2023-01-21T02:50:45.268Z,10.10
2023-01-21T02:55:50.770Z,10.02
2023-01-21T02:58:22.255Z,7.85
2023-01-21T03:01:00.889Z,10.68
2023-01-21T03:03:43.430Z,12.80
2023-01-21T03:06:39.253Z,10.10
2023-01-21T03:09:18.762Z,11.32
2023-01-21T03:11:55.035Z,10.02
2023-01-21T03:14:46.228Z,8.68
2023-01-21T03:17:22.067Z,9.82
2023-01-21T03:19:57.562Z,9.05
2023-01-21T03:22:30.696Z,7.65
2023-01-21T03:24:59.764Z,7.53
2023-01-21T03:27:31.135Z,8.40
2023-01-21T03:30:03.608Z,7.18
2023-01-21T03:32:34.023Z,6.95
2023-01-21T03:35:03.216Z,7.45
2023-01-21T03:37:38.120Z,7.80
2023-01-21T03:40:19.120Z,7.38
2023-01-21T03:42:50.417Z,7.95
2023-01-21T03:45:20.088Z,7.45
2023-01-21T03:47:55.507Z,7.35
2023-01-21T03:50:28.486Z,7.60
2023-01-21T03:52:57.798Z,7.20
2023-01-21T03:55:25.569Z,7.75
2023-01-21T03:57:53.340Z,6.75
2023-01-21T04:00:21.459Z,7.30
2023-01-21T04:02:49.218Z,7.72
2023-01-21T04:05:17.007Z,6.10
2023-01-21T04:07:44.774Z,7.45
2023-01-21T04:10:14.177Z,6.30
2023-01-21T04:12:42.054Z,6.20
2023-01-21T04:15:11.145Z,6.18
2023-01-21T04:17:38.939Z,4.68
2023-01-21T04:20:09.075Z,5.93
2023-01-21T04:22:36.898Z,6.32
2023-01-21T04:25:05.231Z,5.05
2023-01-21T04:27:34.423Z,6.75
2023-01-21T04:30:02.208Z,6.07
2023-01-21T04:32:29.914Z,6.35
2023-01-21T04:34:57.720Z,7.30
2023-01-21T04:37:25.587Z,7.38
2023-01-21T04:39:53.334Z,7.10
2023-01-21T04:42:21.154Z,6.97
2023-01-21T04:44:50.248Z,8.77
2023-01-21T04:47:18.068Z,7.85
2023-01-21T04:49:45.829Z,6.45
2023-01-21T04:52:13.588Z,5.80
2023-01-21T04:54:41.328Z,5.45
2023-01-21T04:57:10.791Z,4.72
2023-01-21T04:59:38.770Z,5.20
2023-01-21T05:02:07.969Z,4.90
2023-01-21T05:04:35.881Z,4.07
2023-01-21T05:07:03.659Z,4.75
2023-01-21T05:09:31.417Z,3.05
2023-01-21T05:11:59.258Z,3.90
2023-01-21T05:14:27.056Z,3.83
2023-01-21T05:16:54.858Z,3.08
2023-01-21T05:19:24.146Z,3.05
2023-01-21T05:21:52.042Z,2.92
2023-01-21T05:24:19.822Z,2.65
2023-01-21T05:26:49.588Z,3.65
2023-01-21T05:29:17.874Z,3.20
2023-01-21T05:31:46.060Z,3.78
2023-01-21T05:34:14.198Z,3.28
2023-01-21T05:36:43.355Z,2.20
2023-01-21T05:39:11.132Z,4.15
2023-01-21T05:41:38.831Z,3.63
2023-01-21T05:44:07.069Z,4.85
2023-01-21T05:46:34.878Z,5.25
2023-01-21T05:49:02.627Z,5.28
2023-01-21T05:51:30.422Z,4.22
2023-01-21T05:53:59.478Z,3.72
2023-01-21T05:56:27.296Z,4.82
2023-01-21T05:58:54.994Z,4.75
2023-01-21T06:01:22.746Z,3.75
2023-01-21T06:03:50.528Z,4.13
2023-01-21T06:06:18.313Z,4.10
2023-01-21T06:08:46.103Z,3.30
2023-01-21T06:11:15.243Z,3.38
2023-01-21T06:13:43.036Z,3.20
2023-01-21T06:16:10.884Z,3.67
2023-01-21T06:18:38.693Z,2.90
2023-01-21T06:21:06.851Z,3.67
2023-01-21T06:23:34.611Z,3.95
2023-01-21T06:26:03.032Z,3.17
2023-01-21T06:28:32.222Z,3.42
2023-01-21T06:31:00.081Z,3.40
2023-01-21T06:33:27.915Z,3.28
2023-01-21T06:35:55.643Z,3.30
2023-01-21T06:38:23.359Z,2.97
2023-01-21T06:40:51.155Z,2.85
2023-01-21T06:43:18.902Z,4.53
2023-01-21T06:45:48.136Z,4.82
2023-01-21T06:48:15.831Z,3.85
2023-01-21T06:50:43.649Z,4.68
2023-01-21T06:53:11.580Z,5.50
2023-01-21T06:55:39.393Z,4.50
2023-01-21T06:58:07.224Z,3.80
2023-01-21T07:00:35.053Z,4.47
2023-01-21T07:03:04.261Z,5.88
2023-01-21T07:05:32.201Z,6.10
2023-01-21T07:08:00.013Z,13.52
2023-01-21T07:10:27.831Z,11.18
2023-01-21T07:12:55.541Z,7.72
2023-01-21T07:15:23.319Z,5.78
2023-01-21T07:17:52.197Z,4.45
2023-01-21T07:20:22.620Z,5.88
2023-01-21T07:22:50.399Z,5.07
2023-01-21T07:25:18.753Z,5.13
2023-01-21T07:27:46.656Z,4.57
2023-01-21T07:30:18.853Z,5.03
2023-01-21T07:32:46.874Z,4.45
2023-01-21T07:35:14.835Z,4.35
2023-01-21T07:37:44.267Z,4.55
2023-01-21T07:40:13.164Z,3.70
2023-01-21T07:42:40.982Z,4.55
2023-01-21T07:45:09.479Z,3.65
2023-01-21T07:47:37.294Z,6.15
2023-01-21T07:50:08.510Z,8.68
2023-01-21T07:52:36.378Z,9.90
2023-01-21T07:55:07.066Z,11.55
2023-01-21T07:57:35.725Z,19.55
2023-01-21T08:00:03.466Z,27.33
2023-01-21T08:02:31.300Z,26.15
2023-01-21T08:04:59.086Z,21.60
2023-01-21T08:07:26.892Z,21.73
2023-01-21T08:09:54.695Z,13.10
2023-01-21T08:12:26.365Z,10.65
2023-01-21T08:14:54.971Z,8.18
2023-01-21T08:17:22.718Z,9.48
2023-01-21T08:19:50.539Z,8.88
2023-01-21T08:22:18.310Z,8.43
2023-01-21T08:24:46.117Z,6.75
2023-01-21T08:27:13.918Z,6.68
2023-01-21T08:29:42.995Z,7.10
2023-01-21T08:32:10.806Z,7.57
2023-01-21T08:34:38.581Z,8.18
2023-01-21T08:37:06.420Z,8.05
2023-01-21T08:39:34.177Z,7.13
2023-01-21T08:42:02.069Z,6.10
2023-01-21T08:44:29.811Z,7.40
2023-01-21T08:46:58.927Z,7.57
2023-01-21T08:49:26.631Z,8.27
2023-01-21T08:51:54.671Z,11.07
2023-01-21T08:54:22.358Z,8.80
2023-01-21T08:56:50.114Z,9.50
2023-01-21T08:59:17.974Z,8.80
2023-01-21T09:01:45.714Z,10.45
2023-01-21T09:04:14.781Z,10.15
2023-01-21T09:06:42.587Z,12.85
2023-01-21T09:09:12.148Z,10.88
2023-01-21T09:11:40.076Z,10.35
2023-01-21T09:14:07.888Z,10.10
2023-01-21T09:16:36.393Z,9.13
2023-01-21T09:19:04.417Z,7.97
2023-01-21T09:21:35.863Z,8.63
2023-01-21T09:24:03.752Z,8.00
2023-01-21T09:26:31.538Z,8.13
2023-01-21T09:29:00.469Z,4.25
2023-01-21T09:31:30.196Z,3.13
2023-01-21T09:34:00.396Z,2.67
2023-01-21T09:36:32.135Z,3.10
2023-01-21T09:39:01.700Z,3.42
2023-01-21T09:41:31.850Z,3.10
2023-01-21T09:44:08.506Z,3.17
2023-01-21T09:46:42.850Z,2.85
2023-01-21T09:49:16.552Z,3.20
2023-01-21T09:51:52.746Z,4.07
2023-01-21T09:54:27.545Z,3.03
2023-01-21T09:57:21.320Z,3.67
2023-01-21T10:00:02.103Z,3.33
2023-01-21T10:02:38.464Z,3.92
2023-01-21T10:05:40.127Z,3.08
2023-01-21T10:08:14.998Z,4.60
2023-01-21T10:10:50.305Z,3.85
2023-01-21T10:13:48.483Z,4.22
2023-01-21T10:16:23.298Z,4.35
2023-01-21T10:18:53.389Z,4.00
2023-01-21T10:21:32.083Z,3.45
2023-01-21T10:24:05.330Z,3.63
2023-01-21T10:26:35.763Z,3.70
2023-01-21T10:29:03.755Z,4.03
2023-01-21T10:31:40.207Z,4.85
2023-01-21T10:34:14.019Z,4.32
2023-01-21T10:36:58.341Z,4.15
2023-01-21T10:39:37.438Z,4.78
2023-01-21T10:42:31.591Z,5.15
2023-01-21T10:47:40.790Z,4.60
2023-01-21T10:50:25.797Z,3.97
2023-01-21T10:53:01.219Z,4.65
2023-01-21T10:55:41.838Z,3.78
2023-01-21T10:58:28.635Z,4.25
2023-01-21T11:00:59.893Z,3.65
2023-01-21T11:03:35.072Z,2.90
2023-01-21T11:06:06.888Z,3.80
2023-01-21T11:08:34.775Z,4.10
2023-01-21T11:11:04.109Z,4.13
2023-01-21T11:13:33.650Z,4.20
2023-01-21T11:16:02.519Z,4.18
2023-01-21T11:18:33.208Z,4.93
2023-01-21T11:21:03.369Z,3.70
2023-01-21T11:23:32.764Z,2.95
2023-01-21T11:26:05.909Z,4.20
2023-01-21T11:28:35.426Z,4.40
2023-01-21T11:31:11.759Z,4.15
2023-01-21T11:33:40.686Z,4.63
2023-01-21T11:36:14.628Z,4.10
2023-01-21T11:38:43.147Z,4.35
2023-01-21T11:41:20.979Z,3.60
2023-01-21T11:43:52.376Z,4.13
2023-01-21T11:46:36.619Z,4.38
2023-01-21T11:49:25.670Z,3.55
2023-01-21T11:52:13.653Z,4.13
2023-01-21T11:54:41.374Z,5.68
2023-01-21T11:57:22.639Z,3.65
2023-01-21T11:59:53.255Z,3.97
2023-01-21T12:02:23.821Z,3.72
2023-01-21T12:04:56.599Z,3.38
2023-01-21T12:07:28.167Z,3.95
2023-01-21T12:10:06.352Z,4.25
2023-01-21T12:12:47.448Z,4.78
2023-01-21T12:15:35.968Z,3.95
2023-01-21T12:18:17.958Z,4.63
2023-01-21T12:20:53.536Z,4.22
2023-01-21T12:23:38.244Z,3.97
2023-01-21T12:26:28.560Z,4.25
2023-01-21T12:29:09.232Z,3.67
2023-01-21T12:31:43.562Z,4.57
2023-01-21T12:34:17.345Z,3.75
2023-01-21T12:36:50.869Z,4.53
2023-01-21T12:41:56.601Z,3.67
2023-01-21T12:44:32.376Z,3.60
2023-01-21T12:47:09.955Z,4.72
2023-01-21T12:50:00.679Z,3.95
2023-01-21T12:52:39.518Z,3.65
2023-01-21T12:55:17.174Z,4.53
2023-01-21T12:57:50.992Z,3.45
2023-01-21T13:00:23.372Z,4.88
2023-01-21T13:03:01.167Z,3.97
2023-01-21T13:05:37.406Z,4.43
2023-01-21T13:08:32.779Z,3.60
2023-01-21T13:11:06.096Z,4.95
2023-01-21T13:13:38.781Z,4.43
2023-01-21T13:16:10.921Z,3.97
2023-01-21T13:18:43.460Z,3.83
2023-01-21T13:21:28.393Z,4.38
2023-01-21T13:24:01.352Z,4.20
2023-01-21T13:26:33.771Z,3.88
2023-01-21T13:29:10.225Z,4.72
2023-01-21T13:31:47.402Z,3.50
2023-01-21T13:34:23.456Z,3.83
2023-01-21T13:37:02.433Z,3.30
2023-01-21T13:39:35.832Z,2.90
2023-01-21T13:42:26.205Z,3.45
2023-01-21T13:45:09.075Z,3.58
2023-01-21T13:48:00.714Z,3.50
2023-01-21T13:50:46.477Z,3.67
2023-01-21T13:53:37.116Z,3.25
2023-01-21T13:56:23.007Z,3.72
2023-01-21T13:58:57.537Z,2.83
2023-01-21T14:01:31.038Z,3.80
2023-01-21T14:06:38.897Z,3.20
2023-01-21T14:09:14.682Z,3.42
2023-01-21T14:11:45.825Z,4.60
2023-01-21T14:14:42.962Z,3.45
2023-01-21T14:17:35.571Z,3.47
2023-01-21T14:20:36.721Z,3.22
2023-01-21T14:23:38.238Z,3.97
2023-01-21T14:26:20.560Z,3.28
2023-01-21T14:28:58.622Z,3.38
2023-01-21T14:31:32.866Z,2.65
2023-01-21T14:34:05.833Z,3.13
2023-01-21T14:36:39.679Z,3.20
2023-01-21T14:39:21.408Z,2.58
2023-01-21T14:42:02.081Z,2.17
2023-01-21T14:44:37.774Z,2.92
2023-01-21T14:47:23.921Z,2.67
2023-01-21T14:49:53.270Z,3.63
2023-01-21T14:52:23.214Z,3.03
2023-01-21T14:54:52.388Z,4.63
2023-01-21T14:57:27.643Z,3.58
2023-01-21T15:00:03.152Z,3.97
2023-01-21T15:02:34.259Z,4.05
2023-01-21T15:05:12.901Z,4.05
2023-01-21T15:07:43.711Z,3.40
2023-01-21T15:10:19.035Z,4.25
2023-01-21T15:12:52.793Z,3.05
2023-01-21T15:15:29.394Z,3.72
2023-01-21T15:18:23.318Z,5.22
2023-01-21T15:20:53.059Z,4.65
2023-01-21T15:23:38.204Z,3.47
2023-01-21T15:26:20.616Z,4.55
2023-01-21T15:28:49.566Z,4.65
2023-01-21T15:31:42.245Z,4.45
2023-01-21T15:34:15.556Z,4.93
2023-01-21T15:36:48.480Z,4.60
2023-01-21T15:39:19.041Z,5.68
2023-01-21T15:42:01.036Z,4.75
2023-01-21T15:44:48.598Z,3.90
2023-01-21T15:47:40.080Z,3.60
2023-01-21T15:50:20.945Z,3.17
2023-01-21T15:53:06.710Z,3.30
2023-01-21T15:56:01.572Z,3.28
2023-01-21T15:58:41.329Z,2.78
2023-01-21T16:01:18.939Z,3.65
2023-01-21T16:04:13.567Z,3.65
2023-01-21T16:06:51.751Z,3.55
2023-01-21T16:09:30.436Z,3.97
2023-01-21T16:12:12.561Z,3.05
2023-01-21T16:14:54.408Z,3.30
2023-01-21T16:17:28.002Z,3.42
2023-01-21T16:22:29.113Z,3.13
2023-01-21T16:25:02.483Z,3.03
2023-01-21T16:27:31.804Z,3.88
2023-01-21T16:30:02.992Z,4.25
2023-01-21T16:32:32.395Z,4.55
2023-01-21T16:35:01.160Z,4.30
2023-01-21T16:37:30.697Z,4.65
2023-01-21T16:40:26.795Z,4.30
2023-01-21T16:43:07.859Z,4.63
2023-01-21T16:45:37.841Z,4.78
2023-01-21T16:48:06.003Z,5.90
2023-01-21T16:50:34.046Z,6.30
2023-01-21T16:53:08.675Z,5.38
2023-01-21T16:55:45.425Z,5.05
2023-01-21T16:58:22.589Z,4.72
2023-01-21T17:01:10.626Z,4.90
2023-01-21T17:03:39.370Z,4.05
2023-01-21T17:06:11.782Z,4.22
2023-01-21T17:08:40.543Z,4.70
2023-01-21T17:11:12.030Z,4.68
2023-01-21T17:13:42.531Z,4.28
2023-01-21T17:16:21.240Z,4.10
2023-01-21T17:18:55.619Z,4.93
2023-01-21T17:21:32.230Z,4.13
2023-01-21T17:24:03.506Z,3.95
2023-01-21T17:26:34.593Z,3.58
2023-01-21T17:29:10.951Z,5.47
2023-01-21T17:31:42.345Z,4.72
2023-01-21T17:34:22.508Z,4.32
2023-01-21T17:36:51.574Z,4.82
2023-01-21T17:39:53.000Z,4.90
2023-01-21T17:42:23.320Z,4.78
2023-01-21T17:44:53.086Z,5.10
2023-01-21T17:47:24.982Z,4.07
2023-01-21T17:49:58.274Z,4.80
2023-01-21T17:52:26.686Z,4.55
2023-01-21T17:55:13.742Z,6.93
2023-01-21T17:57:41.571Z,7.45
2023-01-21T18:00:32.312Z,7.07
2023-01-21T18:03:01.442Z,7.97
2023-01-21T18:05:30.041Z,8.15
2023-01-21T18:07:57.774Z,6.45
2023-01-21T18:10:28.128Z,5.93
2023-01-21T18:12:57.813Z,5.82
2023-01-21T18:15:27.016Z,7.90
2023-01-21T18:17:56.906Z,5.22
2023-01-21T18:20:28.660Z,5.45
2023-01-21T18:22:58.435Z,6.38
2023-01-21T18:25:27.886Z,5.57
2023-01-21T18:27:56.693Z,5.97
2023-01-21T18:30:26.990Z,5.72
2023-01-21T18:32:55.285Z,4.53
2023-01-21T18:35:26.976Z,6.05
2023-01-21T18:37:56.150Z,6.15
2023-01-21T18:40:24.773Z,5.97
2023-01-21T18:42:55.470Z,5.03
2023-01-21T18:45:26.773Z,5.57
2023-01-21T18:47:55.199Z,5.80
2023-01-21T18:50:25.311Z,6.03
2023-01-21T18:52:53.558Z,7.35
2023-01-21T18:55:26.971Z,6.32
2023-01-21T18:57:56.859Z,7.20
2023-01-21T19:00:26.490Z,7.13
2023-01-21T19:02:56.613Z,7.15
2023-01-21T19:05:27.888Z,6.35
2023-01-21T19:07:55.662Z,7.70
2023-01-21T19:10:24.789Z,6.95
2023-01-21T19:12:52.674Z,7.30
2023-01-21T19:15:22.662Z,7.90
2023-01-21T19:17:52.551Z,7.40
2023-01-21T19:20:22.531Z,8.57
2023-01-21T19:22:51.647Z,9.65
2023-01-21T19:25:20.272Z,7.45
2023-01-21T19:27:51.258Z,7.60
2023-01-21T19:30:21.530Z,5.55
2023-01-21T19:32:50.841Z,6.93
2023-01-21T19:35:20.455Z,8.25
2023-01-21T19:37:50.230Z,7.35
2023-01-21T19:40:20.186Z,7.63
2023-01-21T19:42:50.361Z,8.88
2023-01-21T19:45:19.683Z,7.78
2023-01-21T19:47:49.271Z,7.20
2023-01-21T19:50:19.169Z,8.98
2023-01-21T19:52:47.759Z,9.65
2023-01-21T19:55:16.401Z,8.90
2023-01-21T19:57:45.512Z,8.85
2023-01-21T20:00:23.222Z,8.00
2023-01-21T20:02:51.029Z,9.32
2023-01-21T20:05:18.806Z,7.97
2023-01-21T20:07:48.612Z,7.50
2023-01-21T20:10:18.465Z,8.98
2023-01-21T20:12:46.930Z,7.30
2023-01-21T20:15:15.844Z,8.02
2023-01-21T20:17:47.820Z,6.68
2023-01-21T20:20:17.966Z,7.28
2023-01-21T20:22:46.491Z,7.05
2023-01-21T20:25:16.421Z,6.80
2023-01-21T20:27:45.589Z,7.13
2023-01-21T20:30:18.775Z,7.20
2023-01-21T20:32:49.126Z,7.10
2023-01-21T20:35:18.025Z,9.27
2023-01-21T20:37:48.806Z,7.20
2023-01-21T20:40:20.154Z,8.35
2023-01-21T20:42:48.515Z,6.88
2023-01-21T20:45:18.476Z,9.30
2023-01-21T20:47:50.707Z,7.35
2023-01-21T20:50:21.429Z,9.25
2023-01-21T20:52:50.238Z,8.40
2023-01-21T20:55:21.182Z,8.65
2023-01-21T20:57:49.227Z,8.75
2023-01-21T21:00:19.260Z,7.57
2023-01-21T21:02:47.293Z,11.43
2023-01-21T21:05:18.947Z,19.90
2023-01-21T21:07:47.048Z,16.88
2023-01-21T21:10:21.182Z,16.48
2023-01-21T21:12:49.866Z,17.67
2023-01-21T21:15:19.316Z,18.17
2023-01-21T21:17:47.972Z,16.65
2023-01-21T21:20:19.767Z,14.50
2023-01-21T21:22:47.930Z,18.20
2023-01-21T21:25:17.471Z,17.13
2023-01-21T21:27:46.237Z,17.85
2023-01-21T21:30:16.078Z,17.58
2023-01-21T21:32:44.745Z,17.27
2023-01-21T21:35:26.139Z,16.73
2023-01-21T21:37:55.307Z,15.23
2023-01-21T21:40:25.317Z,18.58
2023-01-21T21:43:10.822Z,17.25
2023-01-21T21:45:40.914Z,18.80
2023-01-21T21:48:34.689Z,15.85
2023-01-21T21:51:03.891Z,17.95
2023-01-21T21:53:31.904Z,18.38
2023-01-21T21:56:02.992Z,16.20
2023-01-21T21:58:30.733Z,16.60
2023-01-21T22:01:07.113Z,18.50
2023-01-21T22:03:34.943Z,17.30
2023-01-21T22:06:04.518Z,21.15
2023-01-21T22:08:32.752Z,20.92
2023-01-21T22:11:01.030Z,17.30
2023-01-21T22:13:29.655Z,15.50
2023-01-21T22:15:58.940Z,14.45
2023-01-21T22:18:27.976Z,13.18
2023-01-21T22:21:01.141Z,12.35
2023-01-21T22:23:32.352Z,11.05
2023-01-21T22:26:01.963Z,12.57
2023-01-21T22:28:30.205Z,16.10
2023-01-21T22:31:04.117Z,16.23
2023-01-21T22:33:32.295Z,18.77
2023-01-21T22:36:03.167Z,18.38
2023-01-21T22:38:34.066Z,23.38
2023-01-21T22:41:02.214Z,28.05
2023-01-21T22:43:30.074Z,27.02
2023-01-21T22:45:59.104Z,30.33
2023-01-21T22:48:27.118Z,30.52
2023-01-21T22:50:56.848Z,27.73
2023-01-21T22:53:25.575Z,32.50
2023-01-21T22:55:55.814Z,31.75
2023-01-21T22:58:23.622Z,27.88
2023-01-21T23:00:52.585Z,27.63
2023-01-21T23:03:21.759Z,25.52
2023-01-21T23:05:49.585Z,29.55
2023-01-21T23:08:18.118Z,30.08
2023-01-21T23:10:46.751Z,27.95
2023-01-21T23:13:16.984Z,32.20
2023-01-21T23:15:45.673Z,26.92
2023-01-21T23:18:14.996Z,22.63
2023-01-21T23:20:43.269Z,25.25
2023-01-21T23:23:12.383Z,21.35
2023-01-21T23:25:40.941Z,22.02
2023-01-21T23:28:09.337Z,21.52
2023-01-21T23:30:38.552Z,22.83
2023-01-21T23:33:06.367Z,23.77
2023-01-21T23:35:35.085Z,20.42
2023-01-21T23:38:03.973Z,19.40
2023-01-21T23:40:31.747Z,15.18
2023-01-21T23:42:59.479Z,13.65
2023-01-21T23:45:27.282Z,9.43
2023-01-21T23:47:56.528Z,11.48
2023-01-21T23:50:24.410Z,9.10
2023-01-21T23:52:52.181Z,7.60
2023-01-21T23:55:20.038Z,9.43
2023-01-21T23:57:47.798Z,8.95
